Portada
METAR-TAF:

METAR-TAF

Aeropuertos :

Aeropuerto de Bolonia

Bolonia, Italia

latitud: 44-32N, longitud: 011-18E, altitud: 36 m

Observación

El informe se hizo hace 23 minutos, a las 06:50 UTC
Viento 7 kt del sur-suroeste
Temperatura 8°C
Humedad 66%
Presión 1032 hPa
Visibilidad 10 km o más
sin nubes por debajo de 1500 m y sin presencia de cumulonimbus.

METAR: LIPE 250650Z 20007KT CAVOK 08/02 Q1032

Hora: 08:13 (07:13 UTC)

Pronóstico

El informe se hizo hace 2 horas y 13 minutos, a las 05:00 UTC
Pronóstico válido del 25 a las 06 UTC al 26 a las 06 UTC
Viento 5 kt con dirección variable
Visibilidad 10 km o más
sin nubes por debajo de 1500 m y sin presencia de cumulonimbus.
Temporalmente
del 25 a las 20 UTC al 26 a las 06 UTC
Visibilidad: 3000 m
neblina

TAF: LIPE 250500Z 2506/2606 VRB05KT CAVOK TEMPO 2520/2606 3000 BR

Observaciones y pronósticos meteorológicos de más de 4000 aeropuertos (mensajes METAR y TAF).

Los puntos amarillos y rojos representan las estaciones disponibles.

Ponga el ratón en el punto deseado para ver el nombre de la estación.

Haga clic para ver las observaciones y los pronósticos meteorológicos.

Para cambiar el mapa : haga clic en los botones verdes con una cruz de color negro para hacer un zoom, en el botón verde con un guión para alejar o en las flechas verdes para mapas adyacentes.


METAR-TAF: